sensor_id;sensor_type;location;lat;lon;timestamp;pressure;altitude;pressure_sealevel;temperature;humidity
46778;BME280;32536;47.128;8.746;2023-02-26T00:01:28;90642.41;;;3.65;56.11
46778;BME280;32536;47.128;8.746;2023-02-26T00:03:58;90640.16;;;3.67;56.04
46778;BME280;32536;47.128;8.746;2023-02-26T00:06:27;90634.06;;;3.71;56.21
46778;BME280;32536;47.128;8.746;2023-02-26T00:08:54;90637.84;;;3.73;56.25
46778;BME280;32536;47.128;8.746;2023-02-26T00:11:21;90645.03;;;3.73;55.93
46778;BME280;32536;47.128;8.746;2023-02-26T00:13:48;90649.56;;;3.72;56.25
46778;BME280;32536;47.128;8.746;2023-02-26T00:18:56;90649.22;;;3.70;56.09
46778;BME280;32536;47.128;8.746;2023-02-26T00:21:26;90648.84;;;3.68;56.29
46778;BME280;32536;47.128;8.746;2023-02-26T00:23:54;90649.59;;;3.65;55.78
46778;BME280;32536;47.128;8.746;2023-02-26T00:26:22;90639.06;;;3.58;56.26
46778;BME280;32536;47.128;8.746;2023-02-26T00:28:51;90645.09;;;3.55;56.38
46778;BME280;32536;47.128;8.746;2023-02-26T00:31:19;90645.88;;;3.51;56.25
46778;BME280;32536;47.128;8.746;2023-02-26T00:33:50;90647.78;;;3.47;56.05
46778;BME280;32536;47.128;8.746;2023-02-26T00:42:19;90644.44;;;3.32;56.44
46778;BME280;32536;47.128;8.746;2023-02-26T00:44:46;90642.53;;;3.29;56.09
46778;BME280;32536;47.128;8.746;2023-02-26T00:48:10;90649.75;;;3.18;56.13
46778;BME280;32536;47.128;8.746;2023-02-26T00:50:57;90647.94;;;2.93;56.43
46778;BME280;32536;47.128;8.746;2023-02-26T00:53:39;90652.09;;;2.87;56.68
46778;BME280;32536;47.128;8.746;2023-02-26T00:56:13;90647.94;;;2.79;56.96
46778;BME280;32536;47.128;8.746;2023-02-26T00:58:39;90653.22;;;2.75;56.57
46778;BME280;32536;47.128;8.746;2023-02-26T01:01:07;90651.72;;;2.60;57.17
46778;BME280;32536;47.128;8.746;2023-02-26T01:03:40;90646.81;;;2.40;57.30
46778;BME280;32536;47.128;8.746;2023-02-26T01:06:12;90649.44;;;2.26;57.26
46778;BME280;32536;47.128;8.746;2023-02-26T01:08:52;90647.94;;;2.17;57.09
46778;BME280;32536;47.128;8.746;2023-02-26T01:11:23;90650.56;;;2.06;57.34
46778;BME280;32536;47.128;8.746;2023-02-26T01:13:50;90653.19;;;1.99;57.29
46778;BME280;32536;47.128;8.746;2023-02-26T01:16:20;90650.91;;;1.98;57.12
46778;BME280;32536;47.128;8.746;2023-02-26T01:18:58;90645.63;;;1.90;56.92
46778;BME280;32536;47.128;8.746;2023-02-26T01:21:32;90650.13;;;1.83;57.28
46778;BME280;32536;47.128;8.746;2023-02-26T01:24:05;90657.66;;;1.81;57.08
46778;BME280;32536;47.128;8.746;2023-02-26T01:26:35;90658.78;;;1.72;56.53
46778;BME280;32536;47.128;8.746;2023-02-26T01:29:02;90652.38;;;1.70;56.79
46778;BME280;32536;47.128;8.746;2023-02-26T01:37:03;90648.16;;;1.58;56.56
46778;BME280;32536;47.128;8.746;2023-02-26T01:39:45;90642.13;;;1.57;56.71
46778;BME280;32536;47.128;8.746;2023-02-26T01:42:18;90648.91;;;1.55;56.75
46778;BME280;32536;47.128;8.746;2023-02-26T01:48:04;90646.31;;;1.66;56.97
46778;BME280;32536;47.128;8.746;2023-02-26T01:50:38;90647.84;;;1.74;56.89
46778;BME280;32536;47.128;8.746;2023-02-26T01:53:15;90648.59;;;1.78;56.89
46778;BME280;32536;47.128;8.746;2023-02-26T01:55:44;90649.72;;;1.81;56.34
46778;BME280;32536;47.128;8.746;2023-02-26T01:58:14;90651.63;;;1.76;56.40
46778;BME280;32536;47.128;8.746;2023-02-26T02:00:41;90651.22;;;1.78;56.36
46778;BME280;32536;47.128;8.746;2023-02-26T02:03:42;90649.72;;;1.81;56.58
46778;BME280;32536;47.128;8.746;2023-02-26T02:06:17;90647.88;;;1.81;56.50
46778;BME280;32536;47.128;8.746;2023-02-26T02:08:46;90644.06;;;1.75;56.54
46778;BME280;32536;47.128;8.746;2023-02-26T02:11:13;90650.88;;;1.76;56.72
46778;BME280;32536;47.128;8.746;2023-02-26T02:17:17;90645.94;;;1.78;56.75
46778;BME280;32536;47.128;8.746;2023-02-26T02:26:13;90642.94;;;1.69;56.45
46778;BME280;32536;47.128;8.746;2023-02-26T02:31:23;90648.16;;;1.58;56.25
46778;BME280;32536;47.128;8.746;2023-02-26T02:34:14;90647.03;;;1.52;56.49
46778;BME280;32536;47.128;8.746;2023-02-26T02:39:23;90644.38;;;1.52;56.50
46778;BME280;32536;47.128;8.746;2023-02-26T02:42:07;90646.66;;;1.57;56.86
46778;BME280;32536;47.128;8.746;2023-02-26T02:44:57;90643.66;;;1.62;56.70
46778;BME280;32536;47.128;8.746;2023-02-26T02:47:39;90638.03;;;1.64;56.95
46778;BME280;32536;47.128;8.746;2023-02-26T02:50:16;90632.75;;;1.64;56.63
46778;BME280;32536;47.128;8.746;2023-02-26T02:52:53;90632.72;;;1.71;56.93
46778;BME280;32536;47.128;8.746;2023-02-26T02:55:40;90639.53;;;1.75;56.56
46778;BME280;32536;47.128;8.746;2023-02-26T02:58:17;90638.03;;;1.74;56.56
46778;BME280;32536;47.128;8.746;2023-02-26T03:00:50;90641.06;;;1.76;56.53
46778;BME280;32536;47.128;8.746;2023-02-26T03:06:17;90637.28;;;1.74;56.28
46778;BME280;32536;47.128;8.746;2023-02-26T03:08:46;90634.63;;;1.70;56.22
46778;BME280;32536;47.128;8.746;2023-02-26T03:11:13;90639.91;;;1.70;56.67
46778;BME280;32536;47.128;8.746;2023-02-26T03:13:40;90628.97;;;1.72;56.75
46778;BME280;32536;47.128;8.746;2023-02-26T03:25:49;90632.41;;;1.94;56.58
46778;BME280;32536;47.128;8.746;2023-02-26T03:28:22;90634.69;;;1.96;56.29
46778;BME280;32536;47.128;8.746;2023-02-26T03:31:07;90641.84;;;2.02;56.10
46778;BME280;32536;47.128;8.746;2023-02-26T03:33:49;90626.41;;;2.08;56.20
46778;BME280;32536;47.128;8.746;2023-02-26T03:37:00;90631.31;;;2.10;55.96
46778;BME280;32536;47.128;8.746;2023-02-26T03:39:46;90626.03;;;2.13;55.95
46778;BME280;32536;47.128;8.746;2023-02-26T03:45:12;90627.16;;;2.27;56.04
46778;BME280;32536;47.128;8.746;2023-02-26T03:47:50;90621.50;;;2.32;55.88
46778;BME280;32536;47.128;8.746;2023-02-26T03:50:27;90629.81;;;2.34;55.97
46778;BME280;32536;47.128;8.746;2023-02-26T03:53:33;90629.44;;;2.32;56.16
46778;BME280;32536;47.128;8.746;2023-02-26T03:56:39;90621.16;;;2.30;55.86
46778;BME280;32536;47.128;8.746;2023-02-26T03:59:24;90637.34;;;2.24;55.90
46778;BME280;32536;47.128;8.746;2023-02-26T04:07:11;90634.72;;;2.10;55.83
46778;BME280;32536;47.128;8.746;2023-02-26T04:09:41;90635.44;;;2.03;55.87
46778;BME280;32536;47.128;8.746;2023-02-26T04:12:08;90634.28;;;1.90;55.94
46778;BME280;32536;47.128;8.746;2023-02-26T04:14:35;90644.81;;;1.72;55.84
46778;BME280;32536;47.128;8.746;2023-02-26T04:17:02;90653.81;;;1.49;55.91
46778;BME280;32536;47.128;8.746;2023-02-26T04:19:30;90658.25;;;1.34;56.36
46778;BME280;32536;47.128;8.746;2023-02-26T04:21:57;90650.28;;;1.20;55.80
46778;BME280;32536;47.128;8.746;2023-02-26T04:24:24;90653.19;;;1.04;55.75
46778;BME280;32536;47.128;8.746;2023-02-26T04:26:50;90652.38;;;0.92;55.71
46778;BME280;32536;47.128;8.746;2023-02-26T04:29:17;90657.25;;;0.83;55.67
46778;BME280;32536;47.128;8.746;2023-02-26T04:31:44;90656.03;;;0.70;55.86
46778;BME280;32536;47.128;8.746;2023-02-26T04:34:10;90657.09;;;0.61;55.99
46778;BME280;32536;47.128;8.746;2023-02-26T04:36:37;90648.75;;;0.52;56.20
46778;BME280;32536;47.128;8.746;2023-02-26T04:39:04;90650.22;;;0.50;56.19
46778;BME280;32536;47.128;8.746;2023-02-26T04:41:31;90656.63;;;0.48;56.11
46778;BME280;32536;47.128;8.746;2023-02-26T04:43:57;90644.13;;;0.38;56.19
46778;BME280;32536;47.128;8.746;2023-02-26T04:46:24;90650.50;;;0.34;56.26
46778;BME280;32536;47.128;8.746;2023-02-26T04:48:51;90650.09;;;0.31;56.15
46778;BME280;32536;47.128;8.746;2023-02-26T04:51:18;90650.09;;;0.31;56.33
46778;BME280;32536;47.128;8.746;2023-02-26T04:53:44;90651.59;;;0.32;56.34
46778;BME280;32536;47.128;8.746;2023-02-26T04:56:12;90647.06;;;0.29;56.49
46778;BME280;32536;47.128;8.746;2023-02-26T04:58:38;90644.78;;;0.28;56.27
46778;BME280;32536;47.128;8.746;2023-02-26T05:01:05;90653.47;;;0.28;56.60
46778;BME280;32536;47.128;8.746;2023-02-26T05:03:55;90643.31;;;0.34;56.55
46778;BME280;32536;47.128;8.746;2023-02-26T05:06:22;90648.28;;;0.39;56.54
46778;BME280;32536;47.128;8.746;2023-02-26T05:08:49;90654.31;;;0.43;56.48
46778;BME280;32536;47.128;8.746;2023-02-26T05:11:15;90646.06;;;0.48;56.57
46778;BME280;32536;47.128;8.746;2023-02-26T05:13:42;90656.28;;;0.54;56.73
46778;BME280;32536;47.128;8.746;2023-02-26T05:16:09;90655.19;;;0.58;56.67
46778;BME280;32536;47.128;8.746;2023-02-26T05:18:36;90653.69;;;0.61;56.28
46778;BME280;32536;47.128;8.746;2023-02-26T05:21:03;90657.81;;;0.58;56.49
46778;BME280;32536;47.128;8.746;2023-02-26T05:23:30;90659.34;;;0.63;56.42
46778;BME280;32536;47.128;8.746;2023-02-26T05:25:57;90649.25;;;0.69;56.31
46778;BME280;32536;47.128;8.746;2023-02-26T05:28:25;90656.75;;;0.67;55.80
46778;BME280;32536;47.128;8.746;2023-02-26T05:30:55;90659.34;;;0.59;55.78
46778;BME280;32536;47.128;8.746;2023-02-26T05:33:23;90655.59;;;0.60;56.26
46778;BME280;32536;47.128;8.746;2023-02-26T05:35:49;90662.41;;;0.65;56.22
46778;BME280;32536;47.128;8.746;2023-02-26T05:38:16;90660.91;;;0.68;55.75
46778;BME280;32536;47.128;8.746;2023-02-26T05:40:43;90662.41;;;0.65;55.82
46778;BME280;32536;47.128;8.746;2023-02-26T05:43:10;90657.84;;;0.62;55.60
46778;BME280;32536;47.128;8.746;2023-02-26T05:45:36;90664.97;;;0.58;55.64
46778;BME280;32536;47.128;8.746;2023-02-26T05:48:03;90658.56;;;0.55;55.94
46778;BME280;32536;47.128;8.746;2023-02-26T05:50:30;90658.56;;;0.55;55.83
46778;BME280;32536;47.128;8.746;2023-02-26T05:52:57;90658.59;;;0.59;56.01
46778;BME280;32536;47.128;8.746;2023-02-26T05:55:23;90662.38;;;0.61;55.59
46778;BME280;32536;47.128;8.746;2023-02-26T05:57:50;90662.34;;;0.58;55.24
46778;BME280;32536;47.128;8.746;2023-02-26T06:00:17;90657.41;;;0.53;56.13
46778;BME280;32536;47.128;8.746;2023-02-26T06:02:44;90662.25;;;0.47;55.76
46778;BME280;32536;47.128;8.746;2023-02-26T06:05:11;90665.25;;;0.45;55.72
46778;BME280;32536;47.128;8.746;2023-02-26T06:07:38;90660.69;;;0.39;55.76
46778;BME280;32536;47.128;8.746;2023-02-26T06:10:06;90671.16;;;0.31;55.88
46778;BME280;32536;47.128;8.746;2023-02-26T06:12:34;90669.53;;;0.16;55.88
46778;BME280;32536;47.128;8.746;2023-02-26T06:15:01;90672.78;;;0.02;56.11
46778;BME280;32536;47.128;8.746;2023-02-26T06:17:28;90678.75;;;-0.05;56.27
46778;BME280;32536;47.128;8.746;2023-02-26T06:19:55;90685.78;;;-0.16;56.17
46778;BME280;32536;47.128;8.746;2023-02-26T06:22:21;90686.44;;;-0.26;56.36
46778;BME280;32536;47.128;8.746;2023-02-26T06:24:48;90687.19;;;-0.26;56.34
46778;BME280;32536;47.128;8.746;2023-02-26T06:27:15;90695.84;;;-0.25;56.10
46778;BME280;32536;47.128;8.746;2023-02-26T06:29:42;90693.16;;;-0.29;56.39
46778;BME280;32536;47.128;8.746;2023-02-26T06:32:09;90692.75;;;-0.31;56.58
46778;BME280;32536;47.128;8.746;2023-02-26T06:34:35;90704.78;;;-0.34;56.39
46778;BME280;32536;47.128;8.746;2023-02-26T06:37:02;90702.84;;;-0.37;56.39
46778;BME280;32536;47.128;8.746;2023-02-26T06:39:29;90704.38;;;-0.36;56.35
46778;BME280;32536;47.128;8.746;2023-02-26T06:41:56;90713.34;;;-0.40;56.30
46778;BME280;32536;47.128;8.746;2023-02-26T06:44:22;90716.28;;;-0.45;56.40
46778;BME280;32536;47.128;8.746;2023-02-26T06:46:49;90721.16;;;-0.47;56.29
46778;BME280;32536;47.128;8.746;2023-02-26T06:49:16;90722.22;;;-0.52;56.46
46778;BME280;32536;47.128;8.746;2023-02-26T06:51:43;90719.97;;;-0.54;56.40
46778;BME280;32536;47.128;8.746;2023-02-26T06:54:10;90715.03;;;-0.55;56.39
46778;BME280;32536;47.128;8.746;2023-02-26T06:56:36;90718.78;;;-0.56;56.66
46778;BME280;32536;47.128;8.746;2023-02-26T06:59:03;90720.38;;;-0.48;56.74
46778;BME280;32536;47.128;8.746;2023-02-26T07:01:30;90722.00;;;-0.40;56.72
46778;BME280;32536;47.128;8.746;2023-02-26T07:04:00;90730.63;;;-0.39;56.67
46778;BME280;32536;47.128;8.746;2023-02-26T07:06:27;90730.25;;;-0.41;56.36
46778;BME280;32536;47.128;8.746;2023-02-26T07:08:54;90727.53;;;-0.49;56.87
46778;BME280;32536;47.128;8.746;2023-02-26T07:11:21;90723.38;;;-0.50;56.90
46778;BME280;32536;47.128;8.746;2023-02-26T07:13:48;90733.50;;;-0.52;56.82
46778;BME280;32536;47.128;8.746;2023-02-26T07:16:16;90735.03;;;-0.51;56.83
46778;BME280;32536;47.128;8.746;2023-02-26T07:18:43;90733.94;;;-0.46;57.16
46778;BME280;32536;47.128;8.746;2023-02-26T07:21:10;90738.81;;;-0.48;56.87
46778;BME280;32536;47.128;8.746;2023-02-26T07:23:37;90740.97;;;-0.57;56.82
46778;BME280;32536;47.128;8.746;2023-02-26T07:26:03;90747.59;;;-0.67;56.84
46778;BME280;32536;47.128;8.746;2023-02-26T07:28:30;90741.47;;;-0.75;56.99
46778;BME280;32536;47.128;8.746;2023-02-26T07:30:57;90743.69;;;-0.77;56.93
46778;BME280;32536;47.128;8.746;2023-02-26T07:33:24;90738.34;;;-0.84;57.40
46778;BME280;32536;47.128;8.746;2023-02-26T07:35:53;90748.88;;;-0.84;57.25
46778;BME280;32536;47.128;8.746;2023-02-26T07:38:20;90749.69;;;-0.80;57.37
46778;BME280;32536;47.128;8.746;2023-02-26T07:40:47;90755.28;;;-0.82;57.14
46778;BME280;32536;47.128;8.746;2023-02-26T07:43:14;90751.91;;;-0.82;57.06
46778;BME280;32536;47.128;8.746;2023-02-26T07:45:41;90745.47;;;-0.85;56.58
46778;BME280;32536;47.128;8.746;2023-02-26T07:48:07;90743.63;;;-0.84;56.98
46778;BME280;32536;47.128;8.746;2023-02-26T07:50:34;90741.38;;;-0.82;56.62
46778;BME280;32536;47.128;8.746;2023-02-26T07:53:01;90737.28;;;-0.79;56.44
46778;BME280;32536;47.128;8.746;2023-02-26T07:55:28;90741.41;;;-0.78;56.56
46778;BME280;32536;47.128;8.746;2023-02-26T07:57:54;90738.75;;;-0.82;56.29
46778;BME280;32536;47.128;8.746;2023-02-26T08:00:21;90742.09;;;-0.85;55.85
46778;BME280;32536;47.128;8.746;2023-02-26T08:02:48;90748.06;;;-0.88;55.71
46778;BME280;32536;47.128;8.746;2023-02-26T08:05:15;90738.53;;;-0.97;55.32
46778;BME280;32536;47.128;8.746;2023-02-26T08:07:41;90733.34;;;-0.93;55.50
46778;BME280;32536;47.128;8.746;2023-02-26T08:10:09;90744.69;;;-0.89;55.62
46778;BME280;32536;47.128;8.746;2023-02-26T08:12:36;90737.84;;;-0.93;55.28
46778;BME280;32536;47.128;8.746;2023-02-26T08:15:04;90741.59;;;-0.94;55.40
46778;BME280;32536;47.128;8.746;2023-02-26T08:17:31;90730.31;;;-0.95;55.85
46778;BME280;32536;47.128;8.746;2023-02-26T08:19:58;90730.38;;;-0.91;55.61
46778;BME280;32536;47.128;8.746;2023-02-26T08:22:25;90735.28;;;-0.90;55.12
46778;BME280;32536;47.128;8.746;2023-02-26T08:24:52;90724.34;;;-0.92;55.60
46778;BME280;32536;47.128;8.746;2023-02-26T08:27:18;90730.38;;;-0.91;55.31
46778;BME280;32536;47.128;8.746;2023-02-26T08:29:46;90736.31;;;-0.94;54.80
46778;BME280;32536;47.128;8.746;2023-02-26T08:32:15;90739.25;;;-1.00;54.79
46778;BME280;32536;47.128;8.746;2023-02-26T08:34:45;90733.66;;;-0.98;54.90
46778;BME280;32536;47.128;8.746;2023-02-26T08:37:12;90734.84;;;-0.92;54.87
46778;BME280;32536;47.128;8.746;2023-02-26T08:39:39;90734.84;;;-0.92;54.59
46778;BME280;32536;47.128;8.746;2023-02-26T08:42:08;90750.63;;;-0.92;54.77
46778;BME280;32536;47.128;8.746;2023-02-26T08:44:35;90751.41;;;-0.91;54.49
46778;BME280;32536;47.128;8.746;2023-02-26T08:47:02;90754.69;;;-0.98;54.10
46778;BME280;32536;47.128;8.746;2023-02-26T08:49:29;90766.91;;;-1.09;53.52
46778;BME280;32536;47.128;8.746;2023-02-26T08:51:56;90753.34;;;-1.11;53.95
46778;BME280;32536;47.128;8.746;2023-02-26T08:54:23;90757.88;;;-1.12;53.97
46778;BME280;32536;47.128;8.746;2023-02-26T08:56:50;90753.00;;;-1.10;54.70
46778;BME280;32536;47.128;8.746;2023-02-26T08:59:18;90759.50;;;-1.04;54.52
46778;BME280;32536;47.128;8.746;2023-02-26T09:01:44;90753.06;;;-1.06;54.25
46778;BME280;32536;47.128;8.746;2023-02-26T09:04:11;90762.75;;;-1.10;54.67
46778;BME280;32536;47.128;8.746;2023-02-26T09:06:38;90759.09;;;-1.06;54.33
46778;BME280;32536;47.128;8.746;2023-02-26T09:09:05;90761.00;;;-1.03;54.80
46778;BME280;32536;47.128;8.746;2023-02-26T09:11:32;90767.34;;;-1.07;53.93
46778;BME280;32536;47.128;8.746;2023-02-26T09:13:59;90764.88;;;-1.20;54.05
46778;BME280;32536;47.128;8.746;2023-02-26T09:16:27;90765.47;;;-1.30;54.15
46778;BME280;32536;47.128;8.746;2023-02-26T09:18:55;90764.31;;;-1.33;54.43
46778;BME280;32536;47.128;8.746;2023-02-26T09:21:22;90769.44;;;-1.40;53.95
46778;BME280;32536;47.128;8.746;2023-02-26T09:23:49;90773.91;;;-1.44;54.17
46778;BME280;32536;47.128;8.746;2023-02-26T09:26:15;90787.38;;;-1.46;54.55
46778;BME280;32536;47.128;8.746;2023-02-26T09:28:42;90781.41;;;-1.42;54.47
46778;BME280;32536;47.128;8.746;2023-02-26T09:31:09;90776.53;;;-1.44;54.32
46778;BME280;32536;47.128;8.746;2023-02-26T09:33:36;90784.34;;;-1.48;54.75
46778;BME280;32536;47.128;8.746;2023-02-26T09:36:03;90786.63;;;-1.46;54.81
46778;BME280;32536;47.128;8.746;2023-02-26T09:38:30;90791.16;;;-1.43;54.28
46778;BME280;32536;47.128;8.746;2023-02-26T09:41:00;90795.25;;;-1.46;53.74
46778;BME280;32536;47.128;8.746;2023-02-26T09:46:43;90781.06;;;-1.41;54.51
46778;BME280;32536;47.128;8.746;2023-02-26T09:49:34;90796.59;;;-1.32;54.78
46778;BME280;32536;47.128;8.746;2023-02-26T09:55:01;90797.00;;;-1.30;54.46
46778;BME280;32536;47.128;8.746;2023-02-26T09:57:48;90800.38;;;-1.30;54.36
46778;BME280;32536;47.128;8.746;2023-02-26T10:09:02;90790.06;;;-1.42;53.68
46778;BME280;32536;47.128;8.746;2023-02-26T10:11:58;90791.94;;;-1.42;54.27
46778;BME280;32536;47.128;8.746;2023-02-26T10:14:43;90791.16;;;-1.43;54.54
46778;BME280;32536;47.128;8.746;2023-02-26T10:17:25;90794.56;;;-1.42;54.82
46778;BME280;32536;47.128;8.746;2023-02-26T10:19:59;90796.06;;;-1.41;54.23
46778;BME280;32536;47.128;8.746;2023-02-26T10:23:03;90800.84;;;-1.47;54.57
46778;BME280;32536;47.128;8.746;2023-02-26T10:25:44;90796.41;;;-1.43;54.84
46778;BME280;32536;47.128;8.746;2023-02-26T10:28:33;90809.22;;;-1.41;54.80
46778;BME280;32536;47.128;8.746;2023-02-26T10:31:30;90815.56;;;-1.42;54.61
46778;BME280;32536;47.128;8.746;2023-02-26T10:34:16;90816.91;;;-1.52;54.58
46778;BME280;32536;47.128;8.746;2023-02-26T10:37:20;90815.88;;;-1.48;54.65
46778;BME280;32536;47.128;8.746;2023-02-26T10:46:20;90815.88;;;-1.48;54.81
46778;BME280;32536;47.128;8.746;2023-02-26T10:52:24;90816.03;;;-1.37;54.83
46778;BME280;32536;47.128;8.746;2023-02-26T10:58:04;90812.59;;;-1.18;54.55
46778;BME280;32536;47.128;8.746;2023-02-26T11:00:47;90810.81;;;-1.10;54.88
46778;BME280;32536;47.128;8.746;2023-02-26T11:03:32;90809.34;;;-1.11;54.72
46778;BME280;32536;47.128;8.746;2023-02-26T11:06:04;90809.97;;;-1.18;54.55
46778;BME280;32536;47.128;8.746;2023-02-26T11:08:43;90811.31;;;-1.27;53.26
46778;BME280;32536;47.128;8.746;2023-02-26T11:11:36;90786.78;;;-1.35;54.10
46778;BME280;32536;47.128;8.746;2023-02-26T11:14:06;90795.72;;;-1.40;54.01
46778;BME280;32536;47.128;8.746;2023-02-26T11:16:35;90806.22;;;-1.40;54.10
46778;BME280;32536;47.128;8.746;2023-02-26T11:19:08;90802.78;;;-1.44;53.93
46778;BME280;32536;47.128;8.746;2023-02-26T11:21:39;90796.41;;;-1.43;54.04
46778;BME280;32536;47.128;8.746;2023-02-26T11:24:16;90807.28;;;-1.45;53.83
46778;BME280;32536;47.128;8.746;2023-02-26T11:26:49;90807.69;;;-1.42;53.91
46778;BME280;32536;47.128;8.746;2023-02-26T11:29:20;90820.47;;;-1.41;53.94
46778;BME280;32536;47.128;8.746;2023-02-26T11:31:50;90827.25;;;-1.40;53.78
46778;BME280;32536;47.128;8.746;2023-02-26T11:34:22;90824.25;;;-1.38;53.71
46778;BME280;32536;47.128;8.746;2023-02-26T11:36:53;90829.88;;;-1.40;53.27
46778;BME280;32536;47.128;8.746;2023-02-26T11:39:25;90822.34;;;-1.41;53.24
46778;BME280;32536;47.128;8.746;2023-02-26T11:42:00;90826.09;;;-1.42;52.80
46778;BME280;32536;47.128;8.746;2023-02-26T11:44:38;90825.31;;;-1.43;53.58
46778;BME280;32536;47.128;8.746;2023-02-26T11:47:23;90832.88;;;-1.41;54.02
46778;BME280;32536;47.128;8.746;2023-02-26T11:49:54;90823.63;;;-1.32;53.70
46778;BME280;32536;47.128;8.746;2023-02-26T11:52:33;90823.81;;;-1.21;53.75
46778;BME280;32536;47.128;8.746;2023-02-26T11:55:17;90827.72;;;-1.11;54.01
46778;BME280;32536;47.128;8.746;2023-02-26T11:57:52;90822.41;;;-1.15;53.74
46778;BME280;32536;47.128;8.746;2023-02-26T12:00:30;90823.59;;;-1.12;53.87
46778;BME280;32536;47.128;8.746;2023-02-26T12:03:05;90818.31;;;-1.12;53.42
46778;BME280;32536;47.128;8.746;2023-02-26T12:05:36;90819.31;;;-1.20;53.54
46778;BME280;32536;47.128;8.746;2023-02-26T12:08:12;90819.56;;;-1.29;53.66
46778;BME280;32536;47.128;8.746;2023-02-26T12:10:57;90817.38;;;-1.23;53.33
46778;BME280;32536;47.128;8.746;2023-02-26T12:34:10;90820.41;;;-0.98;53.52
46778;BME280;32536;47.128;8.746;2023-02-26T12:43:35;90836.72;;;-0.89;53.83
46778;BME280;32536;47.128;8.746;2023-02-26T12:46:18;90829.56;;;-0.88;53.02
46778;BME280;32536;47.128;8.746;2023-02-26T12:49:19;90829.50;;;-0.92;53.35
46778;BME280;32536;47.128;8.746;2023-02-26T12:55:33;90841.50;;;-0.94;53.07
46778;BME280;32536;47.128;8.746;2023-02-26T12:58:42;90832.44;;;-0.97;53.32
46778;BME280;32536;47.128;8.746;2023-02-26T13:10:27;90844.59;;;-1.12;53.74
46778;BME280;32536;47.128;8.746;2023-02-26T13:21:45;90849.81;;;-1.16;53.08
46778;BME280;32536;47.128;8.746;2023-02-26T13:26:47;90843.66;;;-1.23;53.15
46778;BME280;32536;47.128;8.746;2023-02-26T13:29:19;90844.38;;;-1.26;53.21
46778;BME280;32536;47.128;8.746;2023-02-26T13:32:03;90850.03;;;-1.24;53.38
46778;BME280;32536;47.128;8.746;2023-02-26T13:34:47;90842.16;;;-1.24;53.08
46778;BME280;32536;47.128;8.746;2023-02-26T13:37:40;90836.84;;;-1.28;52.96
46778;BME280;32536;47.128;8.746;2023-02-26T13:40:28;90838.31;;;-1.31;52.76
46778;BME280;32536;47.128;8.746;2023-02-26T13:48:55;90847.91;;;-1.38;52.58
46778;BME280;32536;47.128;8.746;2023-02-26T13:51:43;90846.81;;;-1.37;52.28
46778;BME280;32536;47.128;8.746;2023-02-26T14:00:00;90852.19;;;-1.30;52.72
46778;BME280;32536;47.128;8.746;2023-02-26T14:02:54;90849.56;;;-1.30;52.88
46778;BME280;32536;47.128;8.746;2023-02-26T14:13:37;90855.41;;;-1.17;52.86
46778;BME280;32536;47.128;8.746;2023-02-26T14:16:20;90862.22;;;-1.13;52.54
46778;BME280;32536;47.128;8.746;2023-02-26T14:24:45;90854.22;;;-1.20;52.93
46778;BME280;32536;47.128;8.746;2023-02-26T14:27:34;90873.03;;;-1.18;52.39
46778;BME280;32536;47.128;8.746;2023-02-26T14:35:41;90864.84;;;-1.13;52.51
46778;BME280;32536;47.128;8.746;2023-02-26T14:40:53;90866.31;;;-1.15;52.43
46778;BME280;32536;47.128;8.746;2023-02-26T14:43:37;90869.25;;;-1.20;52.04
46778;BME280;32536;47.128;8.746;2023-02-26T14:46:07;90858.25;;;-1.26;51.80
46778;BME280;32536;47.128;8.746;2023-02-26T14:48:36;90857.38;;;-1.34;51.89
46778;BME280;32536;47.128;8.746;2023-02-26T14:57:11;90873.22;;;-1.30;52.56
46778;BME280;32536;47.128;8.746;2023-02-26T15:05:40;90875.09;;;-1.31;52.31
46778;BME280;32536;47.128;8.746;2023-02-26T15:14:11;90886.13;;;-1.21;52.37
46778;BME280;32536;47.128;8.746;2023-02-26T15:25:49;90893.19;;;-1.25;52.82
46778;BME280;32536;47.128;8.746;2023-02-26T15:28:31;90898.84;;;-1.23;52.66
46778;BME280;32536;47.128;8.746;2023-02-26T15:31:05;90881.22;;;-1.23;52.36
46778;BME280;32536;47.128;8.746;2023-02-26T15:33:33;90877.88;;;-1.20;52.61
46778;BME280;32536;47.128;8.746;2023-02-26T15:36:06;90877.94;;;-1.16;52.74
46778;BME280;32536;47.128;8.746;2023-02-26T15:39:09;90885.00;;;-1.20;52.55
46778;BME280;32536;47.128;8.746;2023-02-26T15:41:37;90891.09;;;-1.16;52.23
46778;BME280;32536;47.128;8.746;2023-02-26T15:44:12;90885.56;;;-1.11;52.61
46778;BME280;32536;47.128;8.746;2023-02-26T15:47:01;90876.97;;;-1.08;53.10
46778;BME280;32536;47.128;8.746;2023-02-26T15:49:33;90870.88;;;-1.12;52.79
46778;BME280;32536;47.128;8.746;2023-02-26T15:52:05;90880.31;;;-1.11;52.57
46778;BME280;32536;47.128;8.746;2023-02-26T15:54:40;90864.84;;;-1.13;52.72
46778;BME280;32536;47.128;8.746;2023-02-26T15:57:19;90873.53;;;-1.12;52.99
46778;BME280;32536;47.128;8.746;2023-02-26T15:59:52;90876.53;;;-1.10;52.79
46778;BME280;32536;47.128;8.746;2023-02-26T16:02:24;90887.81;;;-1.09;52.65
46778;BME280;32536;47.128;8.746;2023-02-26T16:04:54;90893.78;;;-1.13;52.14
46778;BME280;32536;47.128;8.746;2023-02-26T16:07:21;90889.63;;;-1.14;52.53
46778;BME280;32536;47.128;8.746;2023-02-26T16:09:51;90913.69;;;-1.11;52.68
46778;BME280;32536;47.128;8.746;2023-02-26T16:12:22;90906.22;;;-1.09;52.21
46778;BME280;32536;47.128;8.746;2023-02-26T16:14:55;90917.84;;;-1.10;52.46
46778;BME280;32536;47.128;8.746;2023-02-26T16:17:32;90926.53;;;-1.06;52.32
46778;BME280;32536;47.128;8.746;2023-02-26T16:20:05;90916.88;;;-1.02;52.37
46778;BME280;32536;47.128;8.746;2023-02-26T16:22:38;90909.72;;;-1.02;52.11
46778;BME280;32536;47.128;8.746;2023-02-26T16:25:36;90919.94;;;-0.97;52.23
46778;BME280;32536;47.128;8.746;2023-02-26T16:28:11;90926.66;;;-0.99;52.11
46778;BME280;32536;47.128;8.746;2023-02-26T16:30:42;90934.09;;;-1.05;52.19
46778;BME280;32536;47.128;8.746;2023-02-26T16:33:12;90923.91;;;-1.06;52.45
46778;BME280;32536;47.128;8.746;2023-02-26T16:35:52;90940.88;;;-1.04;52.22
46778;BME280;32536;47.128;8.746;2023-02-26T16:38:32;90940.09;;;-1.04;52.41
46778;BME280;32536;47.128;8.746;2023-02-26T16:41:11;90929.88;;;-1.09;52.40
46778;BME280;32536;47.128;8.746;2023-02-26T16:46:19;90931.13;;;-1.03;52.49
46778;BME280;32536;47.128;8.746;2023-02-26T16:48:54;90941.69;;;-1.00;52.77
46778;BME280;32536;47.128;8.746;2023-02-26T16:51:28;90940.16;;;-1.01;52.69